Time;durP1;ratioP1;P1;durP2;ratioP2;P2;SDS_P1;SDS_P2;PMS_P1;PMS_P2;Temp;Humidity;BMP_temperature;BMP_pressure;BME280_temperature;BME280_humidity;BME280_pressure;Samples;Min_cycle;Max_cycle;Signal;HPM_P1;HPM_P2
2023/10/09 00:01:58;;;;;;;42.60;18.58;;;;;;;;;;2068608;28;20034;-76
2023/10/09 00:03:23;;;;;;;39.85;19.65;;;;;;;;;;2067037;28;20030;-75
2023/10/09 00:04:45;;;;;;;40.88;19.48;;;;;;;;;;2058195;28;20022;-74
2023/10/09 00:06:06;;;;;;;;;;;;;;;;;;2065452;28;20042;-75
2023/10/09 00:07:27;;;;;;;40.55;19.20;;;;;;;;;;2076212;28;19917;-75
2023/10/09 00:08:51;;;;;;;47.00;19.40;;;;;;;;;;2064631;28;20022;-75
2023/10/09 00:10:12;;;;;;;40.83;19.70;;;;;;;;;;2065486;28;20027;-75
2023/10/09 00:11:41;;;;;;;43.50;19.27;;;;;;;;;;2066007;28;20034;-75
2023/10/09 00:13:02;;;;;;;48.13;20.65;;;;;;;;;;2073557;28;20335;-74
2023/10/09 00:14:30;;;;;;;36.92;19.65;;;;;;;;;;2070998;28;20030;-74
2023/10/09 00:15:53;;;;;;;44.35;19.55;;;;;;;;;;2073669;28;20416;-75
2023/10/09 00:18:35;;;;;;;46.10;19.48;;;;;;;;;;2075964;28;20030;-75
2023/10/09 00:19:59;;;;;;;41.00;19.70;;;;;;;;;;2065314;28;20034;-74
2023/10/09 00:21:20;;;;;;;45.47;20.83;;;;;;;;;;2068629;28;20417;-75
2023/10/09 00:22:45;;;;;;;47.85;22.13;;;;;;;;;;2080044;28;20107;-74
2023/10/09 00:24:13;;;;;;;39.15;20.88;;;;;;;;;;2066898;28;20532;-75
2023/10/09 00:25:36;;;;;;;47.75;18.95;;;;;;;;;;2069851;28;20397;-75
2023/10/09 00:27:02;;;;;;;40.05;20.45;;;;;;;;;;2073739;28;20041;-75
2023/10/09 00:28:23;;;;;;;48.53;21.48;;;;;;;;;;2069609;28;20405;-75
2023/10/09 00:29:45;;;;;;;45.65;20.90;;;;;;;;;;2085748;28;20028;-75
2023/10/09 00:31:07;;;;;;;47.80;22.38;;;;;;;;;;2083300;28;20520;-75
2023/10/09 00:32:32;;;;;;;51.70;22.38;;;;;;;;;;2077300;28;20038;-74
2023/10/09 00:33:54;;;;;;;46.70;21.10;;;;;;;;;;2088788;28;20029;-74
2023/10/09 00:36:57;;;;;;;43.30;21.55;;;;;;;;;;2073552;28;20524;-75
2023/10/09 00:38:24;;;;;;;42.33;21.02;;;;;;;;;;2072008;28;20836;-75
2023/10/09 00:39:47;;;;;;;47.28;21.33;;;;;;;;;;2072560;28;20034;-75
2023/10/09 00:42:38;;;;;;;52.60;21.70;;;;;;;;;;2072403;28;20041;-75
2023/10/09 00:43:59;;;;;;;45.40;22.17;;;;;;;;;;2073206;28;20042;-74
2023/10/09 00:45:27;;;;;;;46.23;20.67;;;;;;;;;;2073172;28;20513;-75
2023/10/09 00:46:48;;;;;;;42.45;19.58;;;;;;;;;;2070584;28;20446;-75
2023/10/09 00:48:09;;;;;;;47.40;22.27;;;;;;;;;;2088043;28;20029;-74
2023/10/09 00:49:31;;;;;;;45.97;20.83;;;;;;;;;;2077980;28;20033;-75
2023/10/09 00:50:54;;;;;;;41.33;21.05;;;;;;;;;;2072439;28;20765;-74
2023/10/09 00:52:23;;;;;;;42.47;22.35;;;;;;;;;;2076797;28;20026;-75
2023/10/09 00:53:48;;;;;;;39.20;20.75;;;;;;;;;;2065328;28;20019;-74
2023/10/09 00:55:13;;;;;;;41.08;22.02;;;;;;;;;;2065298;28;20026;-75
2023/10/09 00:56:43;;;;;;;39.45;20.45;;;;;;;;;;2065429;28;20018;-75
2023/10/09 00:58:13;;;;;;;41.13;22.17;;;;;;;;;;2065981;28;20026;-75
2023/10/09 00:59:38;;;;;;;38.70;20.58;;;;;;;;;;2064609;28;20019;-75
2023/10/09 01:00:59;;;;;;;36.97;19.25;;;;;;;;;;2057426;28;20031;-75
2023/10/09 01:02:22;;;;;;;41.83;20.58;;;;;;;;;;2068112;28;20022;-74
2023/10/09 01:03:52;;;;;;;43.75;21.58;;;;;;;;;;2064944;28;20630;-75
2023/10/09 01:05:19;;;;;;;43.10;20.52;;;;;;;;;;2069888;28;20033;-74
2023/10/09 01:06:44;;;;;;;34.40;19.73;;;;;;;;;;2068558;28;20506;-74
2023/10/09 01:08:28;;;;;;;36.53;19.80;;;;;;;;;;2069978;28;20486;-74
2023/10/09 01:09:49;;;;;;;41.58;20.67;;;;;;;;;;2065109;28;20034;-75
2023/10/09 01:11:18;;;;;;;35.33;20.08;;;;;;;;;;2071800;28;20053;-75
2023/10/09 01:12:43;;;;;;;39.20;20.60;;;;;;;;;;2075707;28;20033;-74
2023/10/09 01:15:43;;;;;;;33.38;18.65;;;;;;;;;;2059302;28;20031;-74
2023/10/09 01:17:08;;;;;;;31.60;19.73;;;;;;;;;;2063811;28;20034;-75
2023/10/09 01:18:36;;;;;;;37.83;19.05;;;;;;;;;;2072596;28;20041;-75
2023/10/09 01:20:03;;;;;;;34.80;18.70;;;;;;;;;;2062729;28;20030;-75
2023/10/09 01:21:26;;;;;;;36.50;18.52;;;;;;;;;;2058565;28;20452;-74
2023/10/09 01:22:50;;;;;;;39.53;18.45;;;;;;;;;;2063801;28;20053;-75
2023/10/09 01:24:11;;;;;;;35.38;18.00;;;;;;;;;;2056743;28;20031;-74
2023/10/09 01:25:42;;;;;;;34.95;18.00;;;;;;;;;;2069425;28;20145;-74
2023/10/09 01:27:05;;;;;;;33.22;18.35;;;;;;;;;;2070465;28;20419;-75
2023/10/09 01:28:28;;;;;;;31.63;18.00;;;;;;;;;;2070426;28;20037;-75
2023/10/09 01:29:51;;;;;;;35.40;18.80;;;;;;;;;;2079593;28;20030;-74
2023/10/09 01:31:12;;;;;;;35.67;18.08;;;;;;;;;;2069214;28;20037;-74
2023/10/09 01:32:34;;;;;;;31.73;18.20;;;;;;;;;;2063559;28;20489;-74
2023/10/09 01:33:59;;;;;;;;;;;;;;;;;;2072131;28;20041;-75
2023/10/09 01:35:21;;;;;;;29.75;17.63;;;;;;;;;;2080414;28;19905;-74
2023/10/09 01:36:42;;;;;;;29.38;16.13;;;;;;;;;;2074068;28;20053;-74
2023/10/09 01:38:10;;;;;;;32.40;16.63;;;;;;;;;;2067207;28;20030;-73
2023/10/09 01:39:31;;;;;;;30.85;16.77;;;;;;;;;;2064924;28;20026;-75
2023/10/09 01:40:52;;;;;;;36.15;19.15;;;;;;;;;;2071718;28;20030;-73
2023/10/09 01:42:23;;;;;;;29.80;18.00;;;;;;;;;;2065568;28;20030;-74
2023/10/09 01:43:44;;;;;;;31.50;17.02;;;;;;;;;;2071462;28;20469;-74
2023/10/09 01:45:12;;;;;;;30.73;17.48;;;;;;;;;;2065996;28;20495;-73
2023/10/09 01:46:33;;;;;;;30.58;17.05;;;;;;;;;;2066704;28;20126;-74
2023/10/09 01:47:54;;;;;;;35.08;17.55;;;;;;;;;;2074465;28;20025;-74
2023/10/09 01:49:21;;;;;;;28.38;16.52;;;;;;;;;;2060829;28;20478;-73
2023/10/09 01:50:42;;;;;;;33.85;16.75;;;;;;;;;;2058151;28;20031;-73
2023/10/09 01:52:09;;;;;;;30.05;16.55;;;;;;;;;;2064017;28;20511;-75
2023/10/09 01:53:30;;;;;;;30.17;18.05;;;;;;;;;;2072228;28;20346;-75
2023/10/09 01:54:53;;;;;;;30.55;17.13;;;;;;;;;;2072067;28;20078;-74
2023/10/09 01:56:15;;;;;;;;;;;;;;;;;;2072036;28;20038;-74
2023/10/09 01:57:39;;;;;;;28.30;15.70;;;;;;;;;;2059021;28;19970;-74
2023/10/09 01:59:05;;;;;;;31.27;16.55;;;;;;;;;;2058095;28;20054;-74
2023/10/09 02:00:29;;;;;;;34.97;16.90;;;;;;;;;;2057151;28;20050;-75
2023/10/09 02:01:53;;;;;;;26.52;16.17;;;;;;;;;;2071561;28;20477;-75
2023/10/09 02:03:15;;;;;;;26.70;15.10;;;;;;;;;;2061834;28;20039;-75
2023/10/09 02:04:36;;;;;;;30.25;16.95;;;;;;;;;;2063861;28;20030;-75
2023/10/09 02:06:00;;;;;;;28.77;16.40;;;;;;;;;;2058964;28;20053;-75
2023/10/09 02:07:23;;;;;;;28.27;15.77;;;;;;;;;;2072556;28;20026;-75
2023/10/09 02:08:49;;;;;;;28.48;15.30;;;;;;;;;;2072226;28;20505;-75
2023/10/09 02:10:21;;;;;;;27.23;15.52;;;;;;;;;;2071890;28;20567;-75
2023/10/09 02:11:45;;;;;;;28.50;16.08;;;;;;;;;;2073927;28;20033;-75
2023/10/09 02:13:06;;;;;;;31.92;16.85;;;;;;;;;;2073910;28;20038;-75
2023/10/09 02:14:27;;;;;;;29.83;16.48;;;;;;;;;;2072850;28;20030;-75
2023/10/09 02:15:51;;;;;;;34.65;19.20;;;;;;;;;;2071995;28;20026;-75
2023/10/09 02:17:17;;;;;;;28.92;17.02;;;;;;;;;;2071494;28;20076;-75
2023/10/09 02:18:55;;;;;;;31.00;16.42;;;;;;;;;;2071895;28;20026;-75
2023/10/09 02:20:20;;;;;;;35.67;17.00;;;;;;;;;;2064826;28;20022;-75
2023/10/09 02:21:45;;;;;;;31.83;17.10;;;;;;;;;;2071128;28;20026;-75
2023/10/09 02:23:12;;;;;;;26.77;15.27;;;;;;;;;;2072119;28;20046;-75
2023/10/09 02:24:57;;;;;;;28.30;16.65;;;;;;;;;;2081160;28;20093;-75
2023/10/09 02:27:59;;;;;;;37.03;16.35;;;;;;;;;;2069544;28;20034;-75
2023/10/09 02:29:23;;;;;;;32.22;17.80;;;;;;;;;;2065432;28;20026;-75
2023/10/09 02:30:48;;;;;;;28.27;16.95;;;;;;;;;;2065328;28;20026;-75
2023/10/09 02:32:24;;;;;;;34.03;18.33;;;;;;;;;;2085788;28;20460;-75
2023/10/09 02:33:45;;;;;;;30.20;16.95;;;;;;;;;;2072077;28;20061;-75
2023/10/09 02:35:19;;;;;;;35.28;17.95;;;;;;;;;;2080046;28;20444;-75
2023/10/09 02:36:42;;;;;;;28.38;16.40;;;;;;;;;;2078226;28;20042;-75
2023/10/09 02:38:06;;;;;;;;;;;;;;;;;;2079950;28;20059;-75
2023/10/09 02:39:27;;;;;;;28.98;17.05;;;;;;;;;;2066953;28;19910;-75
2023/10/09 02:42:28;;;;;;;28.25;16.08;;;;;;;;;;2072080;28;20061;-75
2023/10/09 02:43:55;;;;;;;28.75;16.67;;;;;;;;;;2074118;28;20363;-75
2023/10/09 02:45:19;;;;;;;34.70;17.65;;;;;;;;;;2076576;28;20464;-75
2023/10/09 02:46:40;;;;;;;33.00;18.42;;;;;;;;;;2072949;28;20076;-75
2023/10/09 02:48:08;;;;;;;31.17;16.67;;;;;;;;;;2073541;28;20022;-75
2023/10/09 02:49:29;;;;;;;32.08;17.65;;;;;;;;;;2074552;28;20026;-75
2023/10/09 02:50:50;;;;;;;34.88;18.98;;;;;;;;;;2074396;28;20478;-75
2023/10/09 02:52:13;;;;;;;32.05;17.42;;;;;;;;;;2079734;28;20379;-75
2023/10/09 02:53:35;;;;;;;29.73;17.38;;;;;;;;;;2068418;28;20104;-75
2023/10/09 02:54:59;;;;;;;37.30;17.42;;;;;;;;;;2058116;28;20027;-75
2023/10/09 02:56:23;;;;;;;32.05;18.23;;;;;;;;;;2060689;28;20019;-75
2023/10/09 02:57:45;;;;;;;33.00;17.17;;;;;;;;;;2071342;28;20022;-75
2023/10/09 02:59:05;;;;;;;36.97;17.40;;;;;;;;;;2065880;28;20077;-75
2023/10/09 03:00:30;;;;;;;35.97;18.80;;;;;;;;;;2073065;28;20046;-75
2023/10/09 03:01:52;;;;;;;30.27;16.80;;;;;;;;;;2072761;28;20080;-75
2023/10/09 03:03:18;;;;;;;37.25;20.45;;;;;;;;;;2077620;28;20080;-75
2023/10/09 03:04:41;;;;;;;32.67;18.27;;;;;;;;;;2082104;28;20029;-75
2023/10/09 03:06:10;;;;;;;29.95;17.08;;;;;;;;;;2079449;28;20400;-75
2023/10/09 03:07:31;;;;;;;30.05;16.73;;;;;;;;;;2086553;28;20071;-75
2023/10/09 03:08:54;;;;;;;33.25;18.48;;;;;;;;;;2067801;28;20434;-75
2023/10/09 03:10:15;;;;;;;30.90;17.33;;;;;;;;;;2065839;28;20046;-75
2023/10/09 03:11:36;;;;;;;30.02;17.25;;;;;;;;;;2078650;28;20022;-79
2023/10/09 03:12:59;;;;;;;36.88;17.00;;;;;;;;;;2073422;28;20042;-80
2023/10/09 03:14:24;;;;;;;34.45;17.42;;;;;;;;;;2066076;28;20030;-79
2023/10/09 03:15:48;;;;;;;28.08;16.30;;;;;;;;;;2066407;28;20026;-80
2023/10/09 03:17:12;;;;;;;27.98;17.73;;;;;;;;;;2065172;28;20505;-80
2023/10/09 03:18:33;;;;;;;28.77;16.70;;;;;;;;;;2075199;28;20038;-80
2023/10/09 03:19:54;;;;;;;29.33;18.08;;;;;;;;;;2073812;28;20029;-80
2023/10/09 03:21:16;;;;;;;30.77;17.33;;;;;;;;;;2068725;28;20101;-80
2023/10/09 03:22:37;;;;;;;;;;;;;;;;;;2078101;28;20025;-79
2023/10/09 03:23:58;;;;;;;35.25;20.10;;;;;;;;;;2069108;28;19917;-78
2023/10/09 03:25:19;;;;;;;33.63;18.17;;;;;;;;;;2070309;28;20080;-79
2023/10/09 03:26:40;;;;;;;33.85;18.27;;;;;;;;;;2075862;28;20052;-79
2023/10/09 03:28:01;;;;;;;35.35;18.35;;;;;;;;;;2078910;28;20040;-79
2023/10/09 03:29:22;;;;;;;33.72;17.48;;;;;;;;;;2068993;28;20552;-79
2023/10/09 03:30:46;;;;;;;30.85;17.33;;;;;;;;;;2081397;28;20048;-79
2023/10/09 03:32:08;;;;;;;47.75;18.73;;;;;;;;;;2083589;28;20021;-78
2023/10/09 03:33:33;;;;;;;28.58;16.42;;;;;;;;;;2071276;28;20034;-79
2023/10/09 03:34:55;;;;;;;32.13;17.13;;;;;;;;;;2081774;28;20013;-80
2023/10/09 03:36:16;;;;;;;;;;;;;;;;;;2074854;28;20516;-79
2023/10/09 03:37:39;;;;;;;32.67;16.70;;;;;;;;;;2076786;28;19905;-79
2023/10/09 03:39:00;;;;;;;35.78;18.60;;;;;;;;;;2077749;28;20534;-79
2023/10/09 03:40:21;;;;;;;30.23;17.05;;;;;;;;;;2073501;28;20077;-78
2023/10/09 03:41:42;;;;;;;33.13;16.70;;;;;;;;;;2073351;28;20080;-79
2023/10/09 03:43:04;;;;;;;35.50;18.08;;;;;;;;;;2076880;28;20076;-79
2023/10/09 03:44:28;;;;;;;34.15;17.15;;;;;;;;;;2082290;28;20034;-79
2023/10/09 03:45:52;;;;;;;30.70;17.27;;;;;;;;;;2073382;28;20026;-79
2023/10/09 03:47:16;;;;;;;32.55;16.55;;;;;;;;;;2087452;28;20131;-79
2023/10/09 03:48:37;;;;;;;30.88;17.60;;;;;;;;;;2082759;28;20519;-79
2023/10/09 03:50:02;;;;;;;32.33;17.55;;;;;;;;;;2067853;28;20042;-78
2023/10/09 03:51:23;;;;;;;32.70;17.48;;;;;;;;;;2071367;28;20041;-79
2023/10/09 03:52:44;;;;;;;32.45;17.25;;;;;;;;;;2073250;28;20409;-79
2023/10/09 03:54:09;;;;;;;33.35;17.20;;;;;;;;;;2066362;28;20031;-79
2023/10/09 03:55:30;;;;;;;31.02;16.77;;;;;;;;;;2073896;28;20033;-79
2023/10/09 03:56:51;;;;;;;26.27;16.38;;;;;;;;;;2080610;28;20029;-80
2023/10/09 03:58:11;;;;;;;31.60;18.25;;;;;;;;;;2076486;28;20037;-79
2023/10/09 03:59:32;;;;;;;31.67;18.13;;;;;;;;;;2073803;28;20500;-79
2023/10/09 04:00:54;;;;;;;31.88;16.90;;;;;;;;;;2074666;28;20037;-79
2023/10/09 04:02:18;;;;;;;35.25;17.35;;;;;;;;;;2080515;28;20053;-80
2023/10/09 04:03:39;;;;;;;35.92;17.75;;;;;;;;;;2076476;28;20033;-79
2023/10/09 04:05:00;;;;;;;32.80;17.95;;;;;;;;;;2081356;28;20064;-79
2023/10/09 04:06:22;;;;;;;33.40;17.70;;;;;;;;;;2076711;28;20100;-79
2023/10/09 04:07:43;;;;;;;33.83;16.48;;;;;;;;;;2073394;28;20033;-79
2023/10/09 04:11:01;;;;;;;32.53;18.48;;;;;;;;;;2064607;28;20367;-78
2023/10/09 04:12:25;;;;;;;32.97;16.77;;;;;;;;;;2073172;28;20033;-79
2023/10/09 04:13:46;;;;;;;29.23;17.73;;;;;;;;;;2073250;28;20469;-79
2023/10/09 04:15:14;;;;;;;32.70;18.33;;;;;;;;;;2080351;28;20040;-79
2023/10/09 04:16:51;;;;;;;32.45;17.42;;;;;;;;;;2075747;28;20022;-80
2023/10/09 04:18:15;;;;;;;34.85;17.20;;;;;;;;;;2079024;28;20033;-78
2023/10/09 04:19:48;;;;;;;32.97;17.80;;;;;;;;;;2075535;28;20030;-78
2023/10/09 04:21:18;;;;;;;;;;;;;;;;;;2074926;28;20425;-73
2023/10/09 04:22:42;;;;;;;30.77;16.88;;;;;;;;;;2074010;28;19905;-73
2023/10/09 04:24:22;;;;;;;30.80;16.27;;;;;;;;;;2065228;28;20026;-73
2023/10/09 04:25:45;;;;;;;33.15;18.70;;;;;;;;;;2079879;28;20029;-73
2023/10/09 04:27:06;;;;;;;32.92;16.50;;;;;;;;;;2082907;28;20033;-73
2023/10/09 04:28:29;;;;;;;36.42;18.95;;;;;;;;;;2088321;28;20417;-73
2023/10/09 04:29:50;;;;;;;35.55;17.27;;;;;;;;;;2077822;28;20041;-73
2023/10/09 04:31:14;;;;;;;31.58;17.83;;;;;;;;;;2071494;28;20034;-74
2023/10/09 04:32:35;;;;;;;32.72;17.85;;;;;;;;;;2073429;28;20033;-73
2023/10/09 04:34:21;;;;;;;30.55;18.02;;;;;;;;;;2071774;28;20439;-73
2023/10/09 04:35:37;;;;;;;40.03;18.30;;;;;;;;;;2073781;28;20034;-73
2023/10/09 04:37:19;;;;;;;34.85;17.65;;;;;;;;;;2072284;28;20096;-75
2023/10/09 04:38:52;;;;;;;32.50;16.60;;;;;;;;;;2073606;28;20401;-73
2023/10/09 04:40:41;;;;;;;31.45;17.33;;;;;;;;;;2071933;28;20050;-73
2023/10/09 04:42:19;;;;;;;29.17;16.92;;;;;;;;;;2072821;28;20364;-74
2023/10/09 04:43:35;;;;;;;26.77;15.68;;;;;;;;;;2076785;28;20351;-74
2023/10/09 04:46:23;;;;;;;29.45;16.58;;;;;;;;;;2080312;28;20448;-74
2023/10/09 04:47:57;;;;;;;31.95;18.40;;;;;;;;;;2088541;28;20100;-74
2023/10/09 04:49:27;;;;;;;32.67;16.83;;;;;;;;;;2073876;28;20049;-74
2023/10/09 04:51:20;;;;;;;31.92;18.98;;;;;;;;;;2087108;28;20032;-74
2023/10/09 04:54:12;;;;;;;30.13;17.00;;;;;;;;;;2072767;28;20527;-74
2023/10/09 04:55:38;;;;;;;33.70;16.63;;;;;;;;;;2072784;28;20038;-74
2023/10/09 04:56:59;;;;;;;31.00;17.80;;;;;;;;;;2080504;28;20037;-73
2023/10/09 04:58:24;;;;;;;29.73;16.55;;;;;;;;;;2081189;28;20025;-73
2023/10/09 04:59:48;;;;;;;33.00;16.17;;;;;;;;;;2081209;28;20030;-73
2023/10/09 05:01:13;;;;;;;33.15;17.48;;;;;;;;;;2080461;28;20412;-73
2023/10/09 05:02:36;;;;;;;34.40;17.42;;;;;;;;;;2079029;28;20592;-73
2023/10/09 05:04:04;;;;;;;31.05;16.27;;;;;;;;;;2077384;28;20071;-73
2023/10/09 05:05:48;;;;;;;33.63;16.45;;;;;;;;;;2088477;28;20025;-74
2023/10/09 05:07:26;;;;;;;36.10;16.88;;;;;;;;;;2079881;28;20033;-73
2023/10/09 05:08:54;;;;;;;34.47;17.55;;;;;;;;;;2079623;28;20037;-73
2023/10/09 05:10:17;;;;;;;31.17;17.88;;;;;;;;;;2081549;28;20026;-72
2023/10/09 05:11:53;;;;;;;31.30;16.95;;;;;;;;;;2087860;28;20032;-73
2023/10/09 05:13:14;;;;;;;34.55;18.25;;;;;;;;;;2078448;28;20026;-73
2023/10/09 05:14:45;;;;;;;35.90;17.25;;;;;;;;;;2081519;28;20096;-73
2023/10/09 05:16:37;;;;;;;34.22;17.38;;;;;;;;;;2080821;28;20038;-74
2023/10/09 05:17:56;;;;;;;29.27;16.67;;;;;;;;;;2076702;28;20456;-74
2023/10/09 05:20:55;;;;;;;29.40;17.73;;;;;;;;;;2076950;28;20053;-73
2023/10/09 05:21:05;;;;;;;31.48;17.48;;;;;;;;;;2070536;28;20034;-73
2023/10/09 05:22:29;;;;;;;34.78;17.08;;;;;;;;;;2087926;28;20029;-73
2023/10/09 05:24:15;;;;;;;30.55;17.25;;;;;;;;;;2088600;28;20060;-73
2023/10/09 05:27:45;;;;;;;30.98;17.15;;;;;;;;;;2078063;28;20033;-73
2023/10/09 05:29:18;;;;;;;33.47;17.90;;;;;;;;;;2079442;28;20033;-73
2023/10/09 05:30:41;;;;;;;30.67;18.08;;;;;;;;;;2072764;28;20026;-73
2023/10/09 05:33:37;;;;;;;37.47;17.45;;;;;;;;;;2079452;28;20484;-74
2023/10/09 05:37:45;;;;;;;32.67;17.67;;;;;;;;;;2079560;28;20054;-74
2023/10/09 05:40:53;;;;;;;30.95;18.10;;;;;;;;;;2080011;28;20045;-74
2023/10/09 05:42:28;;;;;;;30.95;17.15;;;;;;;;;;2080371;28;20052;-75
2023/10/09 05:47:29;;;;;;;29.77;18.35;;;;;;;;;;2077456;28;20029;-75
2023/10/09 05:48:54;;;;;;;31.70;18.30;;;;;;;;;;2080695;28;20036;-75
2023/10/09 05:51:42;;;;;;;37.30;18.42;;;;;;;;;;2080884;28;20448;-75
2023/10/09 05:53:34;;;;;;;31.85;18.25;;;;;;;;;;2071713;28;20077;-74
2023/10/09 06:04:54;;;;;;;37.72;18.10;;;;;;;;;;2080424;28;20036;-75
2023/10/09 06:06:32;;;;;;;34.75;17.35;;;;;;;;;;2087258;28;20029;-75
2023/10/09 06:08:12;;;;;;;30.25;16.05;;;;;;;;;;2073039;28;20030;-75
2023/10/09 06:13:03;;;;;;;35.50;19.42;;;;;;;;;;2081296;28;20397;-75
2023/10/09 06:16:09;;;;;;;31.63;16.95;;;;;;;;;;2082591;28;20028;-75
2023/10/09 06:17:43;;;;;;;36.78;18.10;;;;;;;;;;2071520;28;20080;-75
2023/10/09 06:19:26;;;;;;;35.92;18.40;;;;;;;;;;2083237;28;20502;-75
2023/10/09 06:25:32;;;;;;;35.63;19.85;;;;;;;;;;2083036;28;20152;-75
2023/10/09 06:28:32;;;;;;;35.15;18.25;;;;;;;;;;2080802;28;20128;-74
2023/10/09 06:30:14;;;;;;;34.78;19.48;;;;;;;;;;2073797;28;20045;-74
2023/10/09 06:31:57;;;;;;;48.08;21.55;;;;;;;;;;2081169;28;20060;-75
2023/10/09 06:33:29;;;;;;;38.22;21.00;;;;;;;;;;2080137;28;20056;-74
2023/10/09 06:34:56;;;;;;;34.72;19.48;;;;;;;;;;2070717;28;20029;-75
2023/10/09 06:36:17;;;;;;;39.70;20.05;;;;;;;;;;2064819;28;20054;-74
2023/10/09 06:38:10;;;;;;;42.50;20.95;;;;;;;;;;2073119;28;20030;-75
2023/10/09 06:41:34;;;;;;;41.33;20.98;;;;;;;;;;2065857;28;20486;-73
2023/10/09 06:44:05;;;;;;;39.97;21.45;;;;;;;;;;2073162;28;20057;-76
2023/10/09 06:45:43;;;;;;;35.80;20.80;;;;;;;;;;2073407;28;20025;-76
2023/10/09 06:47:08;;;;;;;36.60;18.20;;;;;;;;;;2073415;28;20120;-76
2023/10/09 06:51:55;;;;;;;38.67;18.05;;;;;;;;;;2048688;28;20043;-75
2023/10/09 06:54:37;;;;;;;33.15;18.02;;;;;;;;;;2072246;28;20473;-75
2023/10/09 06:56:05;;;;;;;36.20;20.00;;;;;;;;;;2066472;28;20030;-75
2023/10/09 06:57:43;;;;;;;45.60;18.90;;;;;;;;;;2072584;28;20030;-75
2023/10/09 06:59:17;;;;;;;40.22;20.13;;;;;;;;;;2073628;28;20420;-75
2023/10/09 07:02:26;;;;;;;35.80;18.67;;;;;;;;;;2074074;28;20026;-75
2023/10/09 07:03:52;;;;;;;42.70;18.60;;;;;;;;;;2078873;28;20427;-75
2023/10/09 07:05:17;;;;;;;43.13;19.55;;;;;;;;;;2081586;28;20033;-75
2023/10/09 07:08:28;;;;;;;39.55;20.00;;;;;;;;;;2080090;28;20040;-76
2023/10/09 07:09:42;;;;;;;35.63;18.80;;;;;;;;;;2080275;28;20036;-76
2023/10/09 07:11:22;;;;;;;37.83;19.60;;;;;;;;;;2064615;28;20030;-76
2023/10/09 07:12:44;;;;;;;31.40;17.50;;;;;;;;;;2081156;28;20349;-76
2023/10/09 07:14:06;;;;;;;36.95;18.20;;;;;;;;;;2080508;28;20037;-76
2023/10/09 07:17:43;;;;;;;39.72;20.58;;;;;;;;;;2083099;28;20034;-76
2023/10/09 07:19:26;;;;;;;37.25;20.55;;;;;;;;;;2080511;28;20044;-76
2023/10/09 07:20:58;;;;;;;29.83;17.35;;;;;;;;;;2095030;28;20028;-76
2023/10/09 07:23:48;;;;;;;37.47;18.38;;;;;;;;;;2076931;28;19913;-76
2023/10/09 07:25:16;;;;;;;36.33;18.42;;;;;;;;;;2067325;28;20604;-76
2023/10/09 07:26:37;;;;;;;32.33;18.70;;;;;;;;;;2072759;28;20161;-76
2023/10/09 07:28:02;;;;;;;37.47;20.30;;;;;;;;;;2075573;28;20525;-77
2023/10/09 07:29:23;;;;;;;38.47;19.25;;;;;;;;;;2066604;28;20158;-76
2023/10/09 07:30:45;;;;;;;35.42;18.13;;;;;;;;;;2078649;28;20365;-76
2023/10/09 07:32:12;;;;;;;33.83;17.80;;;;;;;;;;2072980;28;20030;-76
2023/10/09 07:33:56;;;;;;;38.45;18.92;;;;;;;;;;2073991;28;20042;-76
2023/10/09 07:35:46;;;;;;;38.20;19.83;;;;;;;;;;2069599;28;20034;-76
2023/10/09 07:37:03;;;;;;;35.95;18.15;;;;;;;;;;2078000;28;20245;-77
2023/10/09 07:38:35;;;;;;;39.65;19.63;;;;;;;;;;2073473;28;20037;-77
2023/10/09 07:40:06;;;;;;;38.13;18.73;;;;;;;;;;2066474;28;20509;-77
2023/10/09 07:42:53;;;;;;;36.00;18.15;;;;;;;;;;2067288;28;20041;-76
2023/10/09 07:44:19;;;;;;;34.05;18.92;;;;;;;;;;2072879;28;20088;-76
2023/10/09 07:47:22;;;;;;;37.20;18.58;;;;;;;;;;2079776;28;20037;-75
2023/10/09 07:48:52;;;;;;;31.77;17.80;;;;;;;;;;2072279;28;20034;-75
2023/10/09 07:50:21;;;;;;;36.80;18.63;;;;;;;;;;2074280;28;20401;-75
2023/10/09 07:51:43;;;;;;;36.03;18.42;;;;;;;;;;2083056;28;20095;-73
2023/10/09 07:54:52;;;;;;;32.72;18.95;;;;;;;;;;2072967;28;20026;-74
2023/10/09 07:56:19;;;;;;;33.90;18.92;;;;;;;;;;2081589;28;20033;-73
2023/10/09 07:57:39;;;;;;;38.72;21.58;;;;;;;;;;2081800;28;20026;-72
2023/10/09 07:59:00;;;;;;;34.15;18.85;;;;;;;;;;2082334;28;20040;-74
2023/10/09 08:00:36;;;;;;;39.00;20.00;;;;;;;;;;2082521;28;20029;-74
2023/10/09 08:02:05;;;;;;;43.78;21.13;;;;;;;;;;2080209;28;20033;-73
2023/10/09 08:03:29;;;;;;;37.90;19.02;;;;;;;;;;2079733;28;20025;-73
2023/10/09 08:04:53;;;;;;;41.03;19.35;;;;;;;;;;2065791;28;20030;-74
2023/10/09 08:08:16;;;;;;;36.20;19.08;;;;;;;;;;2065782;28;20090;-73
2023/10/09 08:09:48;;;;;;;37.17;18.75;;;;;;;;;;2072026;28;20030;-73
2023/10/09 08:15:56;;;;;;;39.63;20.25;;;;;;;;;;2080583;28;20027;-74
2023/10/09 08:17:29;;;;;;;33.50;19.52;;;;;;;;;;2089274;28;20374;-73
2023/10/09 08:18:52;;;;;;;44.72;18.98;;;;;;;;;;2082429;28;20481;-74
2023/10/09 08:20:17;;;;;;;35.75;19.33;;;;;;;;;;2076315;28;20029;-72
2023/10/09 08:21:59;;;;;;;40.10;23.00;;;;;;;;;;2079963;28;20033;-71
2023/10/09 08:23:28;;;;;;;34.85;18.17;;;;;;;;;;2080953;28;20029;-72
2023/10/09 08:24:59;;;;;;;38.70;20.80;;;;;;;;;;2088532;28;20029;-70
2023/10/09 08:26:29;;;;;;;34.92;20.23;;;;;;;;;;2082443;28;20034;-70
2023/10/09 08:27:54;;;;;;;38.25;19.83;;;;;;;;;;2076185;28;20025;-71
2023/10/09 08:29:19;;;;;;;40.00;19.20;;;;;;;;;;2082384;28;20037;-70
2023/10/09 08:30:50;;;;;;;35.80;20.15;;;;;;;;;;2079457;28;20472;-71
2023/10/09 08:32:18;;;;;;;34.20;18.38;;;;;;;;;;2072813;28;20031;-71
2023/10/09 08:33:42;;;;;;;38.38;18.40;;;;;;;;;;2080117;28;20037;-71
2023/10/09 08:35:06;;;;;;;34.17;18.80;;;;;;;;;;2079858;28;20037;-70
2023/10/09 08:36:36;;;;;;;33.15;19.40;;;;;;;;;;2061903;28;20125;-71
2023/10/09 08:38:07;;;;;;;34.25;18.45;;;;;;;;;;2079241;28;20033;-71
2023/10/09 08:39:33;;;;;;;37.93;20.77;;;;;;;;;;2079103;28;20037;-70
2023/10/09 08:40:58;;;;;;;43.95;21.88;;;;;;;;;;2087437;28;20438;-71
2023/10/09 08:42:19;;;;;;;36.45;19.38;;;;;;;;;;2081394;28;20037;-70
2023/10/09 08:43:46;;;;;;;36.92;18.70;;;;;;;;;;2079322;28;20095;-70
2023/10/09 08:45:08;;;;;;;35.22;19.33;;;;;;;;;;2072966;28;20370;-71
2023/10/09 08:46:29;;;;;;;35.15;18.02;;;;;;;;;;2073847;28;20402;-71
2023/10/09 08:47:54;;;;;;;34.75;18.50;;;;;;;;;;2072312;28;20030;-71
2023/10/09 08:49:15;;;;;;;39.25;18.65;;;;;;;;;;2061982;28;20482;-72
2023/10/09 08:50:36;;;;;;;36.72;18.13;;;;;;;;;;2068719;28;20026;-71
2023/10/09 08:52:03;;;;;;;35.70;17.88;;;;;;;;;;2072790;28;20076;-71
2023/10/09 08:53:24;;;;;;;32.03;17.70;;;;;;;;;;2071328;28;20022;-71
2023/10/09 08:54:45;;;;;;;33.35;17.75;;;;;;;;;;2080111;28;20400;-71
2023/10/09 08:56:07;;;;;;;32.33;18.40;;;;;;;;;;2074848;28;20030;-70
2023/10/09 08:57:30;;;;;;;33.40;18.45;;;;;;;;;;2071933;28;20397;-72
2023/10/09 08:58:55;;;;;;;27.48;16.15;;;;;;;;;;2073197;28;20053;-71
2023/10/09 09:00:21;;;;;;;33.40;18.70;;;;;;;;;;2067690;28;20018;-71
2023/10/09 09:01:42;;;;;;;37.55;18.20;;;;;;;;;;2081112;28;20370;-71
2023/10/09 09:03:03;;;;;;;29.83;17.60;;;;;;;;;;2067438;28;20030;-72
2023/10/09 09:04:33;;;;;;;28.65;17.80;;;;;;;;;;2063273;28;20038;-71
2023/10/09 09:06:04;;;;;;;38.97;18.77;;;;;;;;;;2081794;28;20030;-72
2023/10/09 09:07:31;;;;;;;29.65;18.05;;;;;;;;;;2079570;28;20425;-71
2023/10/09 09:08:59;;;;;;;33.95;18.45;;;;;;;;;;2068394;28;20103;-71
2023/10/09 09:10:31;;;;;;;31.30;17.55;;;;;;;;;;2071200;28;20033;-71
2023/10/09 09:11:55;;;;;;;35.67;17.35;;;;;;;;;;2080158;28;20048;-71
2023/10/09 09:13:18;;;;;;;30.55;16.45;;;;;;;;;;2074094;28;20060;-71
2023/10/09 09:14:39;;;;;;;37.22;18.13;;;;;;;;;;2072270;28;20045;-71
2023/10/09 09:16:00;;;;;;;29.30;16.17;;;;;;;;;;2074232;28;20053;-71
2023/10/09 09:17:30;;;;;;;30.95;17.92;;;;;;;;;;2072103;28;20171;-71
2023/10/09 09:19:04;;;;;;;36.53;18.30;;;;;;;;;;2067123;28;20038;-71
2023/10/09 09:21:08;;;;;;;26.33;16.30;;;;;;;;;;2069231;28;20484;-71
2023/10/09 09:22:12;;;;;;;29.17;16.20;;;;;;;;;;2073640;28;20041;-72
2023/10/09 09:23:33;;;;;;;32.53;17.25;;;;;;;;;;2070218;28;20421;-72
2023/10/09 09:25:03;;;;;;;31.33;17.05;;;;;;;;;;2072727;28;20033;-73
2023/10/09 09:26:37;;;;;;;31.40;17.10;;;;;;;;;;2072839;28;20465;-72
2023/10/09 09:28:09;;;;;;;31.98;16.17;;;;;;;;;;2064553;28;20031;-73
2023/10/09 09:29:37;;;;;;;31.02;15.70;;;;;;;;;;2070825;28;20035;-73
2023/10/09 09:31:13;;;;;;;32.55;18.35;;;;;;;;;;2071756;28;20444;-72
2023/10/09 09:32:37;;;;;;;27.88;15.95;;;;;;;;;;2077274;28;20033;-73
2023/10/09 09:33:58;;;;;;;31.80;17.85;;;;;;;;;;2070624;28;20038;-73
2023/10/09 09:35:19;;;;;;;35.00;17.25;;;;;;;;;;2075194;28;20037;-73
2023/10/09 09:36:53;;;;;;;38.90;18.02;;;;;;;;;;2075498;28;20038;-73
2023/10/09 09:38:17;;;;;;;31.20;16.67;;;;;;;;;;2078251;28;20412;-73